createdAt,value
2023-03-30T00:02:30.167Z,49.57
2023-03-30T00:08:32.707Z,49.61
2023-03-30T00:14:36.921Z,49.22
2023-03-30T00:20:42.212Z,48.59
2023-03-30T00:26:43.870Z,47.86
2023-03-30T00:32:46.307Z,48.28
2023-03-30T00:38:47.906Z,47.98
2023-03-30T00:45:06.140Z,43.65
2023-03-30T00:51:09.878Z,48.36
2023-03-30T00:57:12.283Z,49.03
2023-03-30T01:03:24.171Z,49.50
2023-03-30T01:09:25.746Z,48.16
2023-03-30T01:15:31.543Z,47.79
2023-03-30T01:22:12.223Z,49.19
2023-03-30T01:28:25.465Z,49.47
2023-03-30T01:34:51.061Z,48.51
2023-03-30T01:41:21.851Z,50.18
2023-03-30T01:47:31.217Z,50.26
2023-03-30T01:53:59.199Z,50.89
2023-03-30T02:00:12.601Z,51.51
2023-03-30T02:06:23.882Z,52.02
2023-03-30T02:12:29.493Z,52.36
2023-03-30T02:18:31.513Z,52.75
2023-03-30T02:24:33.081Z,52.34
2023-03-30T02:30:39.373Z,52.23
2023-03-30T02:37:11.062Z,52.48
2023-03-30T02:43:37.242Z,52.59
2023-03-30T02:49:46.094Z,51.71
2023-03-30T02:56:15.277Z,51.98
2023-03-30T03:02:48.924Z,52.10
2023-03-30T03:09:03.239Z,52.11
2023-03-30T03:15:07.059Z,52.21
2023-03-30T03:21:13.103Z,52.59
2023-03-30T03:27:15.671Z,52.16
2023-03-30T03:33:50.261Z,51.68
2023-03-30T03:39:56.852Z,51.59
2023-03-30T03:46:00.009Z,47.12
2023-03-30T03:52:01.830Z,50.47
2023-03-30T03:58:06.596Z,51.25
2023-03-30T04:04:08.257Z,50.50
2023-03-30T04:10:10.172Z,51.06
2023-03-30T04:16:18.316Z,52.28
2023-03-30T04:22:45.416Z,51.71
2023-03-30T04:29:07.442Z,52.01
2023-03-30T04:35:18.616Z,52.22
2023-03-30T04:41:47.955Z,52.93
2023-03-30T04:48:09.949Z,53.28
2023-03-30T04:54:14.257Z,52.66
2023-03-30T05:00:42.004Z,51.63
2023-03-30T05:07:15.479Z,50.94
2023-03-30T05:13:23.941Z,51.13
2023-03-30T05:19:52.815Z,51.79
2023-03-30T05:26:21.126Z,51.72
2023-03-30T05:32:49.833Z,51.19
2023-03-30T05:39:29.658Z,51.20
2023-03-30T05:45:47.232Z,51.97
2023-03-30T05:52:08.061Z,51.21
2023-03-30T05:58:28.505Z,50.60
2023-03-30T06:04:40.040Z,50.46
2023-03-30T06:10:41.993Z,50.35
2023-03-30T06:16:50.392Z,50.32
2023-03-30T06:22:52.381Z,51.73
2023-03-30T06:28:56.735Z,52.06
2023-03-30T06:34:58.437Z,51.22
2023-03-30T06:41:04.977Z,50.26
2023-03-30T06:47:07.649Z,49.19
2023-03-30T06:53:09.063Z,48.53
2023-03-30T06:59:16.408Z,47.48
2023-03-30T07:05:37.108Z,47.52
2023-03-30T07:11:53.869Z,47.04
2023-03-30T07:17:57.648Z,46.27
2023-03-30T07:24:02.734Z,45.97
2023-03-30T07:30:20.600Z,45.22
2023-03-30T07:36:25.196Z,45.37
2023-03-30T07:42:26.776Z,44.80
2023-03-30T07:48:28.625Z,44.39
2023-03-30T07:54:30.594Z,43.69
2023-03-30T08:00:53.233Z,43.37
2023-03-30T08:07:26.938Z,43.36
2023-03-30T08:13:33.710Z,43.60
2023-03-30T08:19:35.328Z,43.54
2023-03-30T08:25:37.224Z,42.81
2023-03-30T08:31:38.740Z,43.26
2023-03-30T08:37:40.459Z,43.24
2023-03-30T08:43:50.274Z,42.84
2023-03-30T08:50:01.187Z,41.99
2023-03-30T08:56:32.100Z,41.49
2023-03-30T09:02:38.189Z,40.66
2023-03-30T09:08:39.993Z,40.09
2023-03-30T09:14:45.291Z,39.70
2023-03-30T09:20:47.699Z,40.12
2023-03-30T09:27:24.712Z,39.79
2023-03-30T09:33:44.602Z,39.40
2023-03-30T09:39:47.310Z,38.90
2023-03-30T09:45:48.810Z,39.26
2023-03-30T09:52:03.493Z,39.14
2023-03-30T09:58:26.099Z,39.48
2023-03-30T10:04:27.628Z,38.11
2023-03-30T10:10:36.829Z,37.21
2023-03-30T10:16:38.377Z,37.17
2023-03-30T10:22:53.649Z,37.49
2023-03-30T10:29:06.924Z,37.92
2023-03-30T10:35:09.452Z,38.01
2023-03-30T10:41:15.087Z,37.92
2023-03-30T10:47:48.925Z,38.14
2023-03-30T10:54:02.534Z,38.73
2023-03-30T11:00:12.344Z,39.43
2023-03-30T11:06:22.204Z,38.65
2023-03-30T11:12:36.296Z,39.10
2023-03-30T11:18:52.743Z,39.41
2023-03-30T11:24:57.657Z,39.11
2023-03-30T11:31:04.387Z,38.49
2023-03-30T11:37:13.838Z,38.08
2023-03-30T11:43:17.083Z,37.51
2023-03-30T11:49:37.953Z,38.32
2023-03-30T11:55:39.314Z,38.49
2023-03-30T12:01:56.073Z,38.23
2023-03-30T12:08:00.589Z,38.46
2023-03-30T12:14:02.184Z,38.58
2023-03-30T12:20:10.141Z,38.40
2023-03-30T12:26:26.422Z,38.88
2023-03-30T12:32:29.377Z,39.10
2023-03-30T12:38:41.048Z,39.25
2023-03-30T12:45:02.160Z,39.48
2023-03-30T12:51:03.827Z,39.31
2023-03-30T12:57:17.707Z,39.59
2023-03-30T13:03:25.275Z,39.11
2023-03-30T13:09:27.264Z,39.02
2023-03-30T13:15:28.869Z,39.38
2023-03-30T13:21:47.207Z,39.51
2023-03-30T13:27:50.336Z,39.43
2023-03-30T13:34:06.793Z,39.45
2023-03-30T13:40:35.172Z,39.26
2023-03-30T13:46:52.474Z,39.62
2023-03-30T13:52:55.524Z,39.98
2023-03-30T13:59:02.775Z,39.90
2023-03-30T14:05:16.188Z,40.75
2023-03-30T14:11:21.125Z,41.46
2023-03-30T14:17:23.867Z,41.67
2023-03-30T14:23:31.121Z,41.47
2023-03-30T14:29:32.817Z,41.50
2023-03-30T14:35:39.363Z,41.41
2023-03-30T14:41:40.829Z,41.79
2023-03-30T14:47:42.587Z,41.26
2023-03-30T14:53:45.634Z,42.05
2023-03-30T14:59:50.850Z,42.19
2023-03-30T15:05:53.479Z,42.86
2023-03-30T15:11:58.524Z,42.58
2023-03-30T15:18:02.331Z,42.71
2023-03-30T15:24:08.190Z,42.47
2023-03-30T15:30:26.161Z,42.31
2023-03-30T15:45:01.060Z,43.09
2023-03-30T15:51:07.491Z,47.00
2023-03-30T15:57:08.983Z,49.03
2023-03-30T16:03:12.476Z,49.64
2023-03-30T16:09:15.505Z,49.78
2023-03-30T16:15:19.609Z,51.36
2023-03-30T16:21:23.801Z,50.50
2023-03-30T16:27:25.199Z,50.01
2023-03-30T16:33:26.635Z,49.45
2023-03-30T16:39:29.838Z,48.95
2023-03-30T16:45:33.594Z,48.79
2023-03-30T16:51:35.199Z,48.49
2023-03-30T16:57:36.940Z,47.11
2023-03-30T17:03:39.271Z,49.52
2023-03-30T17:09:40.932Z,49.69
2023-03-30T17:15:42.737Z,51.88
2023-03-30T17:21:45.134Z,53.22
2023-03-30T17:27:47.967Z,54.51
2023-03-30T17:33:51.233Z,54.62
2023-03-30T17:39:53.174Z,55.40
2023-03-30T17:45:55.092Z,56.24
2023-03-30T17:51:56.882Z,56.83
2023-03-30T17:57:59.497Z,57.61
2023-03-30T18:04:01.118Z,57.33
2023-03-30T18:10:19.713Z,57.41
2023-03-30T18:16:23.661Z,57.99
2023-03-30T18:22:25.417Z,57.94
2023-03-30T18:28:28.025Z,58.04
2023-03-30T18:34:30.203Z,57.75
2023-03-30T18:40:37.631Z,57.50
2023-03-30T18:46:39.926Z,57.19
2023-03-30T18:52:42.270Z,56.14
2023-03-30T18:58:44.164Z,57.22
2023-03-30T19:04:48.377Z,57.85
2023-03-30T19:10:55.407Z,58.00
2023-03-30T19:17:01.879Z,58.15
2023-03-30T19:23:06.114Z,58.59
2023-03-30T19:29:07.999Z,59.14
2023-03-30T19:35:11.178Z,58.98
2023-03-30T19:41:13.620Z,59.08
2023-03-30T19:47:17.718Z,59.09
2023-03-30T19:53:19.301Z,59.24
2023-03-30T19:59:24.033Z,58.59
2023-03-30T20:05:26.047Z,55.17
2023-03-30T20:11:28.124Z,56.89
2023-03-30T20:17:33.418Z,53.71
2023-03-30T20:23:35.513Z,56.60
2023-03-30T20:29:39.085Z,57.20
2023-03-30T20:35:43.263Z,56.90
2023-03-30T20:41:44.894Z,56.84
2023-03-30T20:47:49.275Z,57.00
2023-03-30T20:53:51.018Z,56.67
2023-03-30T20:59:55.712Z,57.20
2023-03-30T21:05:59.842Z,57.89
2023-03-30T21:12:02.920Z,58.04
2023-03-30T21:18:04.909Z,58.62
2023-03-30T21:24:11.218Z,58.59
2023-03-30T21:30:13.741Z,57.85
2023-03-30T21:36:18.737Z,57.44
2023-03-30T21:42:25.696Z,56.10
2023-03-30T21:48:34.694Z,53.15
2023-03-30T21:54:37.195Z,56.63
2023-03-30T22:00:39.879Z,56.74
2023-03-30T22:06:41.338Z,57.21
2023-03-30T22:12:42.885Z,57.64
2023-03-30T22:18:45.138Z,58.05
2023-03-30T22:24:46.654Z,57.58
2023-03-30T22:30:48.288Z,57.93
2023-03-30T22:36:52.242Z,58.41
2023-03-30T22:42:54.048Z,58.19
2023-03-30T22:48:56.019Z,58.17
2023-03-30T22:54:57.784Z,58.58
2023-03-30T23:01:08.498Z,58.89
2023-03-30T23:07:11.122Z,56.98
2023-03-30T23:13:13.319Z,57.26
2023-03-30T23:19:15.395Z,58.36
2023-03-30T23:25:20.345Z,58.40
2023-03-30T23:31:22.296Z,58.80
2023-03-30T23:37:24.827Z,58.43
2023-03-30T23:43:26.366Z,58.27
2023-03-30T23:49:28.829Z,59.54
2023-03-30T23:55:35.280Z,59.16
